Time;durP1;ratioP1;P1;durP2;ratioP2;P2;SDS_P1;SDS_P2;PMS_P1;PMS_P2;Temp;Humidity;BMP_temperature;BMP_pressure;BME280_temperature;BME280_humidity;BME280_pressure;Samples;Min_cycle;Max_cycle;Signal;HPM_P1;HPM_P2
2022/12/14 00:01:38;;;;;;;;;;;-3.40;93.30;;;;;;5037441;28;1005;-74
2022/12/14 00:04:07;;;;;;;;;;;-3.40;93.20;;;;;;5040393;28;1347;-73
2022/12/14 00:06:35;;;;;;;;;;;-3.40;93.10;;;;;;5037602;28;1056;-73
2022/12/14 00:09:03;;;;;;;;;;;-3.40;93.00;;;;;;5038826;28;1038;-73
2022/12/14 00:11:32;;;;;;;;;;;-3.40;93.00;;;;;;5048543;28;1009;-71
2022/12/14 00:14:00;;;;;;;;;;;-3.40;93.00;;;;;;5046529;28;1337;-72
2022/12/14 00:16:29;;;;;;;;;;;-3.40;93.00;;;;;;5041739;28;1902;-71
2022/12/14 00:18:57;;;;;;;;;;;-3.50;92.90;;;;;;5038522;28;1040;-72
2022/12/14 00:21:27;;;;;;;;;;;-3.40;92.90;;;;;;5045945;28;1098;-73
2022/12/14 00:23:55;;;;;;;;;;;-3.40;92.70;;;;;;5045357;28;1373;-73
2022/12/14 00:26:24;;;;;;;;;;;-3.50;92.60;;;;;;5037561;28;1041;-73
2022/12/14 00:28:52;;;;;;;;;;;-3.50;92.70;;;;;;5048534;28;1816;-72
2022/12/14 00:31:21;;;;;;;;;;;-3.40;92.60;;;;;;5039572;28;1032;-72
2022/12/14 00:33:49;;;;;;;;;;;-3.40;92.50;;;;;;5045789;28;1484;-70
2022/12/14 00:36:16;;;;;;;;;;;-3.60;92.60;;;;;;5042405;28;1906;-71
2022/12/14 00:38:45;;;;;;;;;;;-3.50;92.50;;;;;;5048473;28;1037;-72
2022/12/14 00:41:13;;;;;;;;;;;-3.50;92.40;;;;;;5041942;28;1089;-71
2022/12/14 00:43:41;;;;;;;;;;;-3.50;92.30;;;;;;5042174;28;1318;-71
2022/12/14 00:46:11;;;;;;;;;;;-3.60;92.30;;;;;;5046517;28;1452;-70
2022/12/14 00:48:39;;;;;;;;;;;-3.50;92.10;;;;;;5049698;28;993;-67
2022/12/14 00:51:07;;;;;;;;;;;-3.50;92.10;;;;;;5049525;28;1057;-70
2022/12/14 00:53:34;;;;;;;;;;;-3.50;91.90;;;;;;5045205;28;2046;-68
2022/12/14 00:56:06;;;;;;;;;;;-3.60;91.90;;;;;;5041813;28;1922;-69
2022/12/14 00:58:33;;;;;;;;;;;-3.60;92.00;;;;;;5047234;28;1607;-69
2022/12/14 01:01:02;;;;;;;;;;;-3.40;92.10;;;;;;5045069;28;1166;-69
2022/12/14 01:03:30;;;;;;;;;;;-3.70;91.80;;;;;;5046805;28;1374;-73
2022/12/14 01:05:59;;;;;;;;;;;-3.70;91.80;;;;;;5047405;28;1044;-73
2022/12/14 01:08:33;;;;;;;;;;;-3.70;91.80;;;;;;5046424;28;1795;-73
2022/12/14 01:11:03;;;;;;;;;;;-3.80;92.00;;;;;;5051595;28;943;-73
2022/12/14 01:13:32;;;;;;;;;;;-3.90;92.00;;;;;;5052487;28;1349;-73
2022/12/14 01:16:03;;;;;;;;;;;-3.90;92.00;;;;;;5045610;28;1907;-72
2022/12/14 01:18:32;;;;;;;;;;;-3.90;92.20;;;;;;5034676;28;1092;-72
2022/12/14 01:21:07;;;;;;;;;;;-4.00;92.10;;;;;;5050575;28;1176;-72
2022/12/14 01:23:36;;;;;;;;;;;-4.00;92.10;;;;;;5045633;28;1399;-72
2022/12/14 01:26:03;;;;;;;;;;;-4.00;92.10;;;;;;5052376;28;1037;-72
2022/12/14 01:28:33;;;;;;;;;;;-4.10;92.10;;;;;;5047215;28;1096;-71
2022/12/14 01:31:04;;;;;;;;;;;-4.10;92.20;;;;;;5041787;28;1020;-71
2022/12/14 01:33:32;;;;;;;;;;;-3.90;92.10;;;;;;5037947;28;1357;-73
2022/12/14 01:36:03;;;;;;;;;;;-4.00;91.90;;;;;;5036543;28;1030;-72
2022/12/14 01:38:31;;;;;;;;;;;-4.10;91.90;;;;;;5037417;28;1973;-74
2022/12/14 01:40:58;;;;;;;;;;;-4.10;91.90;;;;;;5039257;28;1109;-73
2022/12/14 01:43:44;;;;;;;;;;;-4.10;91.70;;;;;;5043389;28;1330;-73
2022/12/14 01:46:19;;;;;;;;;;;-4.20;91.90;;;;;;5037796;28;1101;-72
2022/12/14 01:48:48;;;;;;;;;;;-4.20;92.00;;;;;;5046015;28;1089;-73
2022/12/14 01:51:16;;;;;;;;;;;-4.20;92.00;;;;;;5045151;28;1093;-72
2022/12/14 01:53:44;;;;;;;;;;;-4.20;91.90;;;;;;5037460;28;1347;-72
2022/12/14 01:56:11;;;;;;;;;;;-4.30;92.00;;;;;;5040246;28;1862;-72
2022/12/14 01:58:39;;;;;;;;;;;-4.30;92.00;;;;;;5045483;28;1910;-73
2022/12/14 02:01:10;;;;;;;;;;;-4.30;91.90;;;;;;5051084;28;1096;-72
2022/12/14 02:03:41;;;;;;;;;;;-4.30;91.80;;;;;;5046853;28;1337;-71
2022/12/14 02:06:11;;;;;;;;;;;-4.30;91.90;;;;;;5039456;28;1036;-73
2022/12/14 02:08:40;;;;;;;;;;;-4.30;91.80;;;;;;5046900;28;1041;-73
2022/12/14 02:11:08;;;;;;;;;;;-4.40;91.90;;;;;;5036931;28;1010;-73
2022/12/14 02:19:26;;;;;;;;;;;-4.60;91.90;;;;;;5083272;28;1628;-71
2022/12/14 02:22:06;;;;;;;;;;;-4.50;92.10;;;;;;5077807;28;1173;-71
2022/12/14 02:24:53;;;;;;;;;;;-4.50;91.90;;;;;;5074825;28;1409;-75
2022/12/14 02:27:31;;;;;;;;;;;-4.50;92.00;;;;;;5084074;28;1160;-77
2022/12/14 02:30:05;;;;;;;;;;;-4.50;92.10;;;;;;5089513;28;1967;-77
2022/12/14 02:32:48;;;;;;;;;;;-4.60;92.00;;;;;;5087769;28;1284;-77
2022/12/14 02:35:19;;;;;;;;;;;-4.60;92.00;;;;;;5079155;28;1067;-77
2022/12/14 02:37:51;;;;;;;;;;;-4.60;92.00;;;;;;5083786;28;1891;-72
2022/12/14 02:40:23;;;;;;;;;;;-4.60;91.90;;;;;;5076030;28;1176;-70
2022/12/14 02:42:55;;;;;;;;;;;-4.90;92.20;;;;;;5073717;28;1562;-69
2022/12/14 02:45:26;;;;;;;;;;;-4.90;92.60;;;;;;5070927;28;2181;-67
2022/12/14 02:47:56;;;;;;;;;;;-4.90;92.50;;;;;;5072059;28;2105;-67
2022/12/14 02:50:27;;;;;;;;;;;-5.00;92.70;;;;;;5074639;28;2101;-73
2022/12/14 02:53:01;;;;;;;;;;;-5.10;93.00;;;;;;5077947;28;2117;-75
2022/12/14 02:55:31;;;;;;;;;;;-5.00;92.70;;;;;;5079777;28;1252;-74
2022/12/14 02:58:01;;;;;;;;;;;-4.90;92.60;;;;;;5080420;28;1906;-74
2022/12/14 03:00:32;;;;;;;;;;;-4.90;92.50;;;;;;5078785;28;1032;-74
2022/12/14 03:03:00;;;;;;;;;;;-4.90;92.40;;;;;;5079210;28;1371;-72
2022/12/14 03:05:28;;;;;;;;;;;-4.90;92.40;;;;;;5076695;28;1000;-73
2022/12/14 03:07:57;;;;;;;;;;;-5.00;92.30;;;;;;5076949;28;1045;-71
2022/12/14 03:10:29;;;;;;;;;;;-5.00;92.30;;;;;;5077890;28;1001;-72
2022/12/14 03:13:01;;;;;;;;;;;-4.90;92.30;;;;;;5076772;28;1335;-71
2022/12/14 03:15:29;;;;;;;;;;;-4.90;92.30;;;;;;5078192;28;1046;-73
2022/12/14 03:18:00;;;;;;;;;;;-4.90;92.30;;;;;;5077906;28;2008;-73
2022/12/14 03:20:28;;;;;;;;;;;-4.90;92.40;;;;;;5081741;28;1122;-74
2022/12/14 03:22:58;;;;;;;;;;;-4.90;92.30;;;;;;5077377;28;1559;-73
2022/12/14 03:25:28;;;;;;;;;;;-4.90;92.30;;;;;;5075197;28;1967;-74
2022/12/14 03:27:58;;;;;;;;;;;-5.00;92.20;;;;;;5080176;28;1052;-74
2022/12/14 03:30:26;;;;;;;;;;;-5.00;92.30;;;;;;5077667;28;1037;-74
2022/12/14 03:33:21;;;;;;;;;;;-4.90;92.30;;;;;;5076600;28;2455;-76
2022/12/14 03:35:50;;;;;;;;;;;-5.00;92.20;;;;;;5079129;28;1044;-73
2022/12/14 03:38:21;;;;;;;;;;;-5.00;92.20;;;;;;5079955;28;1911;-73
2022/12/14 03:40:52;;;;;;;;;;;-5.00;92.30;;;;;;5081075;28;1041;-74
2022/12/14 03:43:27;;;;;;;;;;;-5.00;92.10;;;;;;5077678;28;1456;-77
2022/12/14 03:45:57;;;;;;;;;;;-5.00;92.20;;;;;;5079583;28;1241;-76
2022/12/14 03:48:30;;;;;;;;;;;-5.00;92.20;;;;;;5077990;28;1151;-77
2022/12/14 03:51:06;;;;;;;;;;;-5.10;92.30;;;;;;5086935;28;2560;-77
2022/12/14 03:53:38;;;;;;;;;;;-5.10;92.30;;;;;;5078186;28;2198;-75
2022/12/14 03:56:08;;;;;;;;;;;-5.10;92.40;;;;;;5078700;28;1958;-78
2022/12/14 03:58:38;;;;;;;;;;;-5.10;92.20;;;;;;5081650;28;1882;-76
2022/12/14 04:01:11;;;;;;;;;;;-5.10;92.20;;;;;;5080545;28;1097;-74
2022/12/14 04:03:45;;;;;;;;;;;-5.10;92.20;;;;;;5077764;28;1284;-76
2022/12/14 04:06:18;;;;;;;;;;;-5.10;92.30;;;;;;5076179;28;1081;-76
2022/12/14 04:08:49;;;;;;;;;;;-5.20;92.20;;;;;;5076147;28;1030;-76
2022/12/14 04:19:41;;;;;;;;;;;-5.40;92.70;;;;;;5076001;28;2113;-71
2022/12/14 04:22:10;;;;;;;;;;;-5.60;93.20;;;;;;5075045;28;2225;-70
2022/12/14 04:27:32;;;;;;;;;;;-5.60;93.20;;;;;;5072087;28;1183;-69
2022/12/14 04:30:00;;;;;;;;;;;-5.60;93.20;;;;;;5070374;28;1184;-69
2022/12/14 04:32:30;;;;;;;;;;;-5.60;93.40;;;;;;5069774;28;2337;-71
2022/12/14 04:35:01;;;;;;;;;;;-5.70;93.40;;;;;;5071023;28;1879;-68
2022/12/14 04:37:30;;;;;;;;;;;-5.70;93.60;;;;;;5069453;28;1884;-70
2022/12/14 04:40:00;;;;;;;;;;;-5.70;93.60;;;;;;5069974;28;1968;-69
2022/12/14 04:42:30;;;;;;;;;;;-5.70;93.60;;;;;;5071186;28;1365;-68
2022/12/14 04:45:00;;;;;;;;;;;-5.70;93.60;;;;;;5068885;28;2306;-68
2022/12/14 04:47:30;;;;;;;;;;;-5.80;93.60;;;;;;5069419;28;1886;-68
2022/12/14 04:50:01;;;;;;;;;;;-5.80;93.60;;;;;;5071274;28;2353;-70
2022/12/14 04:52:32;;;;;;;;;;;-5.80;93.70;;;;;;5074922;28;2015;-68
2022/12/14 04:55:03;;;;;;;;;;;-5.80;93.60;;;;;;5084161;28;1796;-69
2022/12/14 04:57:33;;;;;;;;;;;-5.90;93.60;;;;;;5074482;28;1911;-69
2022/12/14 05:00:02;;;;;;;;;;;-5.90;93.60;;;;;;5075698;28;1974;-68
2022/12/14 05:02:34;;;;;;;;;;;-6.30;93.50;;;;;;5072598;28;1284;-69
2022/12/14 05:05:11;;;;;;;;;;;-6.00;94.10;;;;;;5077488;28;1218;-67
2022/12/14 05:07:46;;;;;;;;;;;-5.90;93.90;;;;;;5075768;28;1226;-70
2022/12/14 05:10:17;;;;;;;;;;;-5.90;93.80;;;;;;5073223;28;1366;-73
2022/12/14 05:12:46;;;;;;;;;;;-5.90;94.00;;;;;;5075910;28;1379;-71
2022/12/14 05:15:15;;;;;;;;;;;-5.70;93.50;;;;;;5075458;28;1908;-73
2022/12/14 05:17:43;;;;;;;;;;;-5.60;93.20;;;;;;5080326;28;1288;-72
2022/12/14 05:20:16;;;;;;;;;;;-5.60;93.00;;;;;;5077158;28;1906;-71
2022/12/14 05:22:44;;;;;;;;;;;-5.60;93.00;;;;;;5076004;28;1284;-72
2022/12/14 05:25:11;;;;;;;;;;;-5.60;92.80;;;;;;5074956;28;1630;-73
2022/12/14 05:27:39;;;;;;;;;;;-5.60;92.90;;;;;;5076859;28;1413;-74
2022/12/14 05:30:07;;;;;;;;;;;-5.60;92.80;;;;;;5072595;28;1203;-74
2022/12/14 05:32:35;;;;;;;;;;;-5.70;92.70;;;;;;5072296;28;1370;-73
2022/12/14 05:35:03;;;;;;;;;;;-5.60;92.80;;;;;;5076991;28;1195;-73
2022/12/14 05:37:32;;;;;;;;;;;-5.50;92.90;;;;;;5077258;28;1242;-73
2022/12/14 05:40:00;;;;;;;;;;;-5.60;92.90;;;;;;5075778;28;1910;-71
2022/12/14 05:42:28;;;;;;;;;;;-5.60;92.80;;;;;;5075789;28;1621;-72
2022/12/14 05:44:56;;;;;;;;;;;-5.60;92.80;;;;;;5074758;28;1365;-73
2022/12/14 05:47:23;;;;;;;;;;;-5.70;92.90;;;;;;5068886;28;1333;-71
2022/12/14 05:49:51;;;;;;;;;;;-5.60;92.80;;;;;;5071398;28;1629;-71
2022/12/14 05:52:19;;;;;;;;;;;-5.60;92.70;;;;;;5070421;28;1103;-71
2022/12/14 05:54:47;;;;;;;;;;;-5.60;92.60;;;;;;5070058;28;1295;-71
2022/12/14 05:57:15;;;;;;;;;;;-5.60;92.70;;;;;;5072772;28;1093;-71
2022/12/14 05:59:43;;;;;;;;;;;-5.60;92.70;;;;;;5072875;28;2105;-70
2022/12/14 06:02:10;;;;;;;;;;;-5.60;92.60;;;;;;5073258;28;1125;-72
2022/12/14 06:04:38;;;;;;;;;;;-5.70;92.80;;;;;;5073828;28;1377;-71
2022/12/14 06:07:08;;;;;;;;;;;-5.70;92.90;;;;;;5073171;28;1084;-71
2022/12/14 06:09:36;;;;;;;;;;;-5.60;93.50;;;;;;5073636;28;2027;-71
2022/12/14 06:12:05;;;;;;;;;;;-5.50;93.60;;;;;;5080394;28;2276;-74
2022/12/14 06:14:33;;;;;;;;;;;-5.60;93.70;;;;;;5073103;28;1280;-72
2022/12/14 06:17:00;;;;;;;;;;;-5.60;94.00;;;;;;5073240;28;997;-72
2022/12/14 06:19:28;;;;;;;;;;;-5.70;93.70;;;;;;5071955;28;2141;-70
2022/12/14 06:21:55;;;;;;;;;;;-5.70;93.40;;;;;;5073161;28;1263;-72
2022/12/14 06:24:23;;;;;;;;;;;-5.60;93.20;;;;;;5072447;28;1369;-73
2022/12/14 06:26:50;;;;;;;;;;;-5.30;93.10;;;;;;5072665;28;1085;-71
2022/12/14 06:29:20;;;;;;;;;;;-5.60;93.00;;;;;;5072644;28;1156;-71
2022/12/14 06:31:48;;;;;;;;;;;-5.60;92.90;;;;;;5071169;28;1724;-71
2022/12/14 06:34:16;;;;;;;;;;;-5.60;93.10;;;;;;5073121;28;2089;-71
2022/12/14 06:36:45;;;;;;;;;;;-5.60;93.00;;;;;;5076369;28;1114;-70
2022/12/14 06:39:14;;;;;;;;;;;-5.60;92.80;;;;;;5076410;28;1906;-70
2022/12/14 06:41:42;;;;;;;;;;;-5.60;92.90;;;;;;5081235;28;1144;-71
2022/12/14 06:44:11;;;;;;;;;;;-5.50;93.00;;;;;;5078213;28;2152;-71
2022/12/14 06:46:41;;;;;;;;;;;-5.60;92.90;;;;;;5076771;28;1858;-71
2022/12/14 06:49:12;;;;;;;;;;;-5.60;92.90;;;;;;5077543;28;1081;-70
2022/12/14 06:51:40;;;;;;;;;;;-5.50;92.70;;;;;;5076350;28;1131;-70
2022/12/14 06:54:10;;;;;;;;;;;-5.50;92.40;;;;;;5076562;28;1265;-71
2022/12/14 06:56:38;;;;;;;;;;;-5.60;92.70;;;;;;5076233;28;1168;-71
2022/12/14 06:59:07;;;;;;;;;;;-5.60;92.90;;;;;;5075929;28;2004;-70
2022/12/14 07:01:35;;;;;;;;;;;-5.70;92.70;;;;;;5077204;28;1076;-70
2022/12/14 07:04:06;;;;;;;;;;;-5.70;93.00;;;;;;5075519;28;1396;-71
2022/12/14 07:06:35;;;;;;;;;;;-5.60;92.50;;;;;;5076063;28;1017;-69
2022/12/14 07:09:04;;;;;;;;;;;-5.60;92.30;;;;;;5076463;28;1170;-70
2022/12/14 07:11:32;;;;;;;;;;;-5.60;92.40;;;;;;5076177;28;1106;-68
2022/12/14 07:14:02;;;;;;;;;;;-5.70;92.40;;;;;;5076698;28;1270;-67
2022/12/14 07:16:29;;;;;;;;;;;-5.70;92.40;;;;;;5073668;28;2065;-67
2022/12/14 07:18:57;;;;;;;;;;;-5.60;92.30;;;;;;5075321;28;2041;-67
2022/12/14 07:21:27;;;;;;;;;;;-5.60;92.40;;;;;;5075471;28;2000;-68
2022/12/14 07:23:54;;;;;;;;;;;-5.70;92.40;;;;;;5074513;28;2102;-67
2022/12/14 07:26:23;;;;;;;;;;;-5.70;92.60;;;;;;5072733;28;2059;-69
2022/12/14 07:28:52;;;;;;;;;;;-5.70;92.50;;;;;;5073373;28;2081;-69
2022/12/14 07:31:20;;;;;;;;;;;-5.60;92.50;;;;;;5074506;28;2085;-69
2022/12/14 07:33:49;;;;;;;;;;;-5.70;92.40;;;;;;5075347;28;1528;-70
2022/12/14 07:36:17;;;;;;;;;;;-5.60;92.40;;;;;;5075228;28;1101;-69
2022/12/14 07:38:47;;;;;;;;;;;-5.50;92.30;;;;;;5075138;28;1009;-69
2022/12/14 07:41:16;;;;;;;;;;;-5.60;92.30;;;;;;5075400;28;1910;-69
2022/12/14 07:43:49;;;;;;;;;;;-5.60;92.40;;;;;;5073986;28;2487;-69
2022/12/14 07:46:18;;;;;;;;;;;-5.60;92.20;;;;;;5073660;28;1077;-69
2022/12/14 07:48:46;;;;;;;;;;;-5.50;92.40;;;;;;5075191;28;1001;-69
2022/12/14 07:51:15;;;;;;;;;;;-5.60;92.30;;;;;;5075679;28;818;-69
2022/12/14 07:53:43;;;;;;;;;;;-5.60;92.30;;;;;;5078459;28;1281;-69
2022/12/14 07:56:12;;;;;;;;;;;-5.60;92.30;;;;;;5080278;28;1589;-69
2022/12/14 07:58:40;;;;;;;;;;;-5.60;92.50;;;;;;5075041;28;2073;-69
2022/12/14 08:01:09;;;;;;;;;;;-5.60;92.50;;;;;;5075801;28;1910;-69
2022/12/14 08:03:38;;;;;;;;;;;-5.60;92.40;;;;;;5075078;28;1290;-73
2022/12/14 08:06:06;;;;;;;;;;;-5.50;92.50;;;;;;5075436;28;1077;-70
2022/12/14 08:08:34;;;;;;;;;;;-5.40;92.40;;;;;;5075256;28;1060;-70
2022/12/14 08:11:02;;;;;;;;;;;-5.40;92.30;;;;;;5073357;28;2156;-71
2022/12/14 08:13:31;;;;;;;;;;;-5.40;92.20;;;;;;5075052;28;2157;-71
2022/12/14 08:16:02;;;;;;;;;;;-5.30;92.00;;;;;;5072818;28;2110;-72
2022/12/14 08:18:29;;;;;;;;;;;-5.30;92.00;;;;;;5076448;28;2094;-70
2022/12/14 08:20:57;;;;;;;;;;;-5.20;92.00;;;;;;5075982;28;1902;-71
2022/12/14 08:23:25;;;;;;;;;;;-5.30;92.00;;;;;;5074717;28;2266;-71
2022/12/14 08:25:54;;;;;;;;;;;-5.30;92.00;;;;;;5076369;28;1081;-70
2022/12/14 08:28:22;;;;;;;;;;;-5.20;92.00;;;;;;5074904;28;2285;-70
2022/12/14 08:30:51;;;;;;;;;;;-5.20;92.10;;;;;;5075803;28;1048;-69
2022/12/14 08:33:19;;;;;;;;;;;-5.20;92.10;;;;;;5074469;28;2106;-70
2022/12/14 08:35:47;;;;;;;;;;;-5.10;92.30;;;;;;5071840;28;2184;-70
2022/12/14 08:38:15;;;;;;;;;;;-5.10;92.00;;;;;;5073603;28;2104;-70
2022/12/14 08:40:44;;;;;;;;;;;-5.00;92.00;;;;;;5074910;28;2074;-71
2022/12/14 08:43:12;;;;;;;;;;;-5.10;92.00;;;;;;5073530;28;1894;-69
2022/12/14 08:45:40;;;;;;;;;;;-4.90;92.10;;;;;;5074069;28;2202;-69
2022/12/14 08:48:09;;;;;;;;;;;-4.90;92.00;;;;;;5073472;28;2159;-69
2022/12/14 08:50:36;;;;;;;;;;;-4.80;92.00;;;;;;5072852;28;2112;-71
2022/12/14 08:53:04;;;;;;;;;;;-4.80;92.00;;;;;;5072547;28;2089;-70
2022/12/14 08:55:32;;;;;;;;;;;-4.70;91.90;;;;;;5073289;28;1955;-69
2022/12/14 08:58:05;;;;;;;;;;;-4.90;91.90;;;;;;5074000;28;2128;-69
2022/12/14 09:00:33;;;;;;;;;;;-4.70;92.00;;;;;;5073950;28;1905;-68
2022/12/14 09:03:00;;;;;;;;;;;-4.60;92.00;;;;;;5075806;28;1353;-69
2022/12/14 09:05:29;;;;;;;;;;;-4.60;91.90;;;;;;5072539;28;2152;-71
2022/12/14 09:07:57;;;;;;;;;;;-4.60;91.90;;;;;;5071350;28;2062;-69
2022/12/14 09:10:25;;;;;;;;;;;-4.60;91.50;;;;;;5070932;28;2161;-69
2022/12/14 09:12:53;;;;;;;;;;;-4.60;91.40;;;;;;5066301;28;2062;-69
2022/12/14 09:15:20;;;;;;;;;;;-4.60;91.40;;;;;;5070778;28;1143;-70
2022/12/14 09:17:49;;;;;;;;;;;-4.60;91.40;;;;;;5069520;28;1228;-70
2022/12/14 09:20:17;;;;;;;;;;;-4.50;91.20;;;;;;5066918;28;1887;-70
2022/12/14 09:22:46;;;;;;;;;;;-4.50;91.50;;;;;;5073338;28;1318;-71
2022/12/14 09:25:14;;;;;;;;;;;-4.50;91.50;;;;;;5073466;28;1155;-70
2022/12/14 09:27:42;;;;;;;;;;;-4.40;91.40;;;;;;5070067;28;1044;-70
2022/12/14 09:30:10;;;;;;;;;;;-4.40;91.30;;;;;;5068358;28;984;-70
2022/12/14 09:32:39;;;;;;;;;;;-4.40;91.30;;;;;;5066691;28;1571;-70
2022/12/14 09:35:06;;;;;;;;;;;-4.30;91.40;;;;;;5068853;28;1233;-70
2022/12/14 09:37:34;;;;;;;;;;;-4.30;91.20;;;;;;5067312;28;1076;-69
2022/12/14 09:40:03;;;;;;;;;;;-4.20;91.10;;;;;;5068028;28;1057;-70
2022/12/14 09:42:44;;;;;;;;;;;-4.30;90.70;;;;;;5071340;28;1906;-70
2022/12/14 09:45:20;;;;;;;;;;;-4.20;90.80;;;;;;5072333;28;2129;-69
2022/12/14 09:47:50;;;;;;;;;;;-4.20;90.60;;;;;;5073025;28;1016;-69
2022/12/14 09:50:19;;;;;;;;;;;-4.10;90.50;;;;;;5073034;28;1056;-69
2022/12/14 09:52:48;;;;;;;;;;;-4.10;90.30;;;;;;5073006;28;1376;-69
2022/12/14 09:55:19;;;;;;;;;;;-3.90;90.10;;;;;;5073052;28;1045;-69
2022/12/14 09:57:49;;;;;;;;;;;-3.80;90.10;;;;;;5072885;28;1021;-69
2022/12/14 10:00:18;;;;;;;;;;;-3.80;89.30;;;;;;5072412;28;2255;-69
2022/12/14 10:02:53;;;;;;;;;;;-3.80;89.20;;;;;;5073719;28;1906;-70
2022/12/14 10:05:29;;;;;;;;;;;-3.60;89.10;;;;;;5077143;28;1072;-69
2022/12/14 10:08:01;;;;;;;;;;;-3.70;88.60;;;;;;5079629;28;2093;-68
2022/12/14 10:10:35;;;;;;;;;;;-3.60;88.80;;;;;;5078111;28;1402;-68
2022/12/14 10:13:09;;;;;;;;;;;-3.60;89.30;;;;;;5070459;28;1686;-69
2022/12/14 10:15:40;;;;;;;;;;;-3.50;88.70;;;;;;5069702;28;1056;-70
2022/12/14 10:18:22;;;;;;;;;;;-3.50;88.20;;;;;;5069832;28;1333;-69
2022/12/14 10:21:11;;;;;;;;;;;-3.40;87.10;;;;;;5070283;28;1914;-69
2022/12/14 10:23:41;;;;;;;;;;;-3.30;87.20;;;;;;5069597;28;1335;-71
2022/12/14 10:26:15;;;;;;;;;;;-3.20;86.60;;;;;;5070764;28;1178;-71
2022/12/14 10:28:45;;;;;;;;;;;-3.20;86.20;;;;;;5071719;28;1078;-71
2022/12/14 10:31:14;;;;;;;;;;;-3.10;86.20;;;;;;5072624;28;1160;-71
2022/12/14 10:33:43;;;;;;;;;;;-3.10;86.30;;;;;;5072125;28;1394;-71
2022/12/14 10:36:17;;;;;;;;;;;-3.10;85.60;;;;;;5071356;28;1117;-70
2022/12/14 10:38:47;;;;;;;;;;;-3.00;86.10;;;;;;5072464;28;1012;-70
2022/12/14 10:41:22;;;;;;;;;;;-2.90;85.60;;;;;;5071327;28;1914;-70
2022/12/14 10:43:53;;;;;;;;;;;-2.90;85.40;;;;;;5071588;28;1366;-70
2022/12/14 10:46:26;;;;;;;;;;;-2.90;84.80;;;;;;5072006;28;1013;-69
2022/12/14 10:48:56;;;;;;;;;;;-2.90;85.10;;;;;;5072460;28;1072;-69
2022/12/14 10:51:27;;;;;;;;;;;-2.80;85.00;;;;;;5072560;28;998;-69
2022/12/14 10:53:57;;;;;;;;;;;-2.80;84.20;;;;;;5071381;28;1295;-70
2022/12/14 10:56:27;;;;;;;;;;;-2.70;84.40;;;;;;5072403;28;1085;-69
2022/12/14 10:59:14;;;;;;;;;;;-2.60;84.10;;;;;;5067857;28;1519;-68
2022/12/14 11:01:42;;;;;;;;;;;-2.60;83.50;;;;;;5070358;28;1890;-68
2022/12/14 11:04:18;;;;;;;;;;;-2.50;82.50;;;;;;5069979;28;1665;-68
2022/12/14 11:06:46;;;;;;;;;;;-2.50;82.60;;;;;;5071997;28;1052;-69
2022/12/14 11:09:20;;;;;;;;;;;-2.20;83.10;;;;;;5070029;28;1026;-69
2022/12/14 11:11:54;;;;;;;;;;;-2.40;82.40;;;;;;5065388;28;1009;-68
2022/12/14 11:14:22;;;;;;;;;;;-2.30;81.90;;;;;;5071927;28;1725;-69
2022/12/14 11:16:50;;;;;;;;;;;-2.30;82.00;;;;;;5067085;28;1490;-69
2022/12/14 11:19:18;;;;;;;;;;;-2.60;81.60;;;;;;5073220;28;1677;-68
2022/12/14 11:21:47;;;;;;;;;;;-2.20;81.30;;;;;;5074947;28;1906;-69
2022/12/14 11:24:24;;;;;;;;;;;-2.10;81.70;;;;;;5075256;28;1555;-68
2022/12/14 11:26:55;;;;;;;;;;;-2.10;81.20;;;;;;5069943;28;1218;-68
2022/12/14 11:29:28;;;;;;;;;;;-2.10;81.20;;;;;;5072468;28;1098;-69
2022/12/14 11:31:55;;;;;;;;;;;-2.10;81.10;;;;;;5071299;28;1059;-71
2022/12/14 11:34:26;;;;;;;;;;;-2.00;79.70;;;;;;5073408;28;1288;-68
2022/12/14 11:36:54;;;;;;;;;;;-2.00;79.70;;;;;;5075294;28;1057;-68
2022/12/14 11:39:22;;;;;;;;;;;-1.90;80.10;;;;;;5070760;28;1045;-68
2022/12/14 11:42:01;;;;;;;;;;;-1.90;79.80;;;;;;5069193;28;1988;-67
2022/12/14 11:44:30;;;;;;;;;;;-1.80;79.60;;;;;;5073792;28;1399;-67
2022/12/14 11:47:01;;;;;;;;;;;-1.80;79.80;;;;;;5075115;28;1539;-67
2022/12/14 11:49:30;;;;;;;;;;;-1.80;80.40;;;;;;5073559;28;1728;-70
2022/12/14 11:51:59;;;;;;;;;;;-1.80;79.70;;;;;;5073748;28;1454;-68
2022/12/14 11:54:26;;;;;;;;;;;-1.70;80.60;;;;;;5072005;28;1562;-69
2022/12/14 11:56:57;;;;;;;;;;;-1.60;79.00;;;;;;5075497;28;1014;-69
2022/12/14 11:59:28;;;;;;;;;;;-1.50;78.40;;;;;;5074051;28;1657;-69
2022/12/14 12:01:56;;;;;;;;;;;-1.60;79.10;;;;;;5075323;28;1913;-69
2022/12/14 12:04:24;;;;;;;;;;;-1.30;78.20;;;;;;5075287;28;1684;-69
2022/12/14 12:06:53;;;;;;;;;;;-1.50;78.10;;;;;;5075025;28;1041;-69
2022/12/14 12:09:25;;;;;;;;;;;-1.50;77.30;;;;;;5074906;28;1696;-70
2022/12/14 12:11:52;;;;;;;;;;;-1.50;78.10;;;;;;5073784;28;1740;-70
2022/12/14 12:14:24;;;;;;;;;;;-1.40;77.80;;;;;;5072156;28;1597;-69
2022/12/14 12:16:53;;;;;;;;;;;-1.40;77.40;;;;;;5071196;28;1740;-70
2022/12/14 12:19:24;;;;;;;;;;;-1.40;77.20;;;;;;5074433;28;1009;-70
2022/12/14 12:21:52;;;;;;;;;;;-1.30;76.30;;;;;;5075067;28;1990;-69
2022/12/14 12:24:21;;;;;;;;;;;-1.20;76.70;;;;;;5072969;28;1324;-69
2022/12/14 12:26:50;;;;;;;;;;;-1.30;76.70;;;;;;5074148;28;1542;-68
2022/12/14 12:29:21;;;;;;;;;;;-1.20;77.10;;;;;;5078111;28;1033;-69
2022/12/14 12:31:52;;;;;;;;;;;-1.20;77.20;;;;;;5076591;28;1079;-69
2022/12/14 12:34:23;;;;;;;;;;;-1.20;77.10;;;;;;5074040;28;1715;-69
2022/12/14 12:36:52;;;;;;;;;;;-0.90;77.20;;;;;;5074426;28;1058;-69
2022/12/14 12:39:40;;;;;;;;;;;-0.90;77.50;;;;;;5073544;28;1591;-69
2022/12/14 12:42:14;;;;;;;;;;;-1.10;76.40;;;;;;5074048;28;1906;-69
2022/12/14 12:44:44;;;;;;;;;;;-1.20;74.90;;;;;;5074341;28;1398;-69
2022/12/14 12:47:18;;;;;;;;;;;-1.20;75.50;;;;;;5073831;28;1068;-72
2022/12/14 12:50:16;;;;;;;;;;;-1.20;75.10;;;;;;5073570;28;1571;-72
2022/12/14 12:52:48;;;;;;;;;;;-1.10;75.10;;;;;;5072998;28;1569;-73
2022/12/14 12:55:20;;;;;;;;;;;-1.10;75.70;;;;;;5074409;28;977;-72
2022/12/14 12:57:51;;;;;;;;;;;-1.20;75.20;;;;;;5073642;28;1068;-71
2022/12/14 13:00:20;;;;;;;;;;;-1.20;74.50;;;;;;5076383;28;1021;-72
2022/12/14 13:02:48;;;;;;;;;;;-1.10;74.90;;;;;;5073572;28;1906;-72
2022/12/14 13:05:19;;;;;;;;;;;-1.20;74.80;;;;;;5073951;28;1048;-72
2022/12/14 13:08:13;;;;;;;;;;;-1.10;75.10;;;;;;5073948;28;1214;-72
2022/12/14 13:10:42;;;;;;;;;;;-1.10;75.10;;;;;;5075574;28;1014;-72
2022/12/14 13:13:31;;;;;;;;;;;-1.10;75.40;;;;;;5073420;28;1673;-71
2022/12/14 13:16:05;;;;;;;;;;;-1.10;75.80;;;;;;5073565;28;1060;-72
2022/12/14 13:18:36;;;;;;;;;;;-1.10;75.10;;;;;;5073298;28;1047;-71
2022/12/14 13:21:30;;;;;;;;;;;-1.20;75.50;;;;;;5073228;28;1090;-71
2022/12/14 13:23:58;;;;;;;;;;;-1.20;75.90;;;;;;5072652;28;1992;-72
2022/12/14 13:26:35;;;;;;;;;;;-1.20;75.40;;;;;;5073286;28;1084;-72
2022/12/14 13:29:36;;;;;;;;;;;-1.20;75.40;;;;;;5073084;28;1591;-71
2022/12/14 13:32:10;;;;;;;;;;;-1.20;75.70;;;;;;5069840;28;1434;-69
2022/12/14 13:34:44;;;;;;;;;;;-1.30;75.20;;;;;;5069742;28;1505;-71
2022/12/14 13:37:32;;;;;;;;;;;-1.20;75.50;;;;;;5071734;28;1036;-70
2022/12/14 13:40:33;;;;;;;;;;;-1.30;76.50;;;;;;5070780;28;1029;-72
2022/12/14 13:43:07;;;;;;;;;;;-1.20;76.10;;;;;;5006937;28;1906;-69
2022/12/14 13:45:37;;;;;;;;;;;-1.20;76.00;;;;;;5009549;28;1306;-71
2022/12/14 13:48:07;;;;;;;;;;;-1.30;75.20;;;;;;5008683;28;983;-72
2022/12/14 13:50:38;;;;;;;;;;;-1.30;74.60;;;;;;5009270;28;1039;-71
2022/12/14 13:53:25;;;;;;;;;;;-1.40;74.70;;;;;;5008879;28;1425;-71
2022/12/14 13:55:55;;;;;;;;;;;-1.30;74.50;;;;;;5007971;28;1277;-70
2022/12/14 13:58:27;;;;;;;;;;;-1.30;74.50;;;;;;5009625;28;1082;-70
2022/12/14 14:01:00;;;;;;;;;;;-1.40;74.90;;;;;;5037076;28;983;-71
2022/12/14 14:03:50;;;;;;;;;;;-1.40;75.60;;;;;;5071021;28;2000;-71
2022/12/14 14:06:20;;;;;;;;;;;-1.40;76.30;;;;;;5067440;28;2124;-72
2022/12/14 14:08:50;;;;;;;;;;;-1.50;76.50;;;;;;5071499;28;1493;-71
2022/12/14 14:11:39;;;;;;;;;;;-1.40;77.00;;;;;;5070433;28;1505;-71
2022/12/14 14:14:18;;;;;;;;;;;-1.60;76.50;;;;;;5070136;28;1665;-73
2022/12/14 14:16:49;;;;;;;;;;;-1.60;77.20;;;;;;5071411;28;953;-70
2022/12/14 14:19:20;;;;;;;;;;;-1.60;77.00;;;;;;5070485;28;1181;-68
2022/12/14 14:22:01;;;;;;;;;;;-1.70;76.90;;;;;;5070548;28;1031;-70
2022/12/14 14:24:55;;;;;;;;;;;-1.70;77.40;;;;;;5068919;28;1905;-67
2022/12/14 14:27:24;;;;;;;;;;;-1.80;77.60;;;;;;5070322;28;1065;-67
2022/12/14 14:29:52;;;;;;;;;;;-1.90;78.00;;;;;;5070891;28;1063;-66
2022/12/14 14:32:38;;;;;;;;;;;-1.90;78.00;;;;;;5069502;28;1488;-67
2022/12/14 14:35:07;;;;;;;;;;;-1.90;78.40;;;;;;5070779;28;1347;-67
2022/12/14 14:37:36;;;;;;;;;;;-2.00;78.70;;;;;;5070365;28;1055;-67
2022/12/14 14:40:18;;;;;;;;;;;-2.00;78.80;;;;;;5069864;28;1076;-74
2022/12/14 14:42:58;;;;;;;;;;;-2.10;79.40;;;;;;5067959;28;1513;-66
2022/12/14 14:45:29;;;;;;;;;;;-2.10;79.20;;;;;;5069793;28;1906;-66
2022/12/14 14:47:57;;;;;;;;;;;-2.20;79.60;;;;;;5070007;28;981;-64
2022/12/14 14:50:27;;;;;;;;;;;-2.10;80.00;;;;;;5072063;28;1021;-66
2022/12/14 14:53:09;;;;;;;;;;;-2.20;80.30;;;;;;5073875;28;1358;-64
2022/12/14 14:55:58;;;;;;;;;;;-2.30;80.70;;;;;;5076491;28;1084;-68
2022/12/14 14:58:32;;;;;;;;;;;-2.30;81.70;;;;;;5078954;28;1036;-69
2022/12/14 15:01:23;;;;;;;;;;;-2.30;81.70;;;;;;5076655;28;1036;-69
2022/12/14 15:03:54;;;;;;;;;;;-2.30;81.60;;;;;;5072778;28;1993;-69
2022/12/14 15:06:23;;;;;;;;;;;-2.10;82.10;;;;;;5075537;28;1061;-68
2022/12/14 15:08:52;;;;;;;;;;;-2.40;82.00;;;;;;5077148;28;1085;-69
2022/12/14 15:11:21;;;;;;;;;;;-2.40;82.20;;;;;;5076776;28;1009;-68